createdAt,value
2023-04-16T00:01:51.487Z,99.90
2023-04-16T00:04:19.149Z,99.90
2023-04-16T00:06:46.349Z,99.90
2023-04-16T00:09:13.155Z,99.90
2023-04-16T00:11:40.064Z,99.90
2023-04-16T00:14:06.960Z,99.90
2023-04-16T00:16:33.863Z,99.90
2023-04-16T00:19:00.714Z,99.90
2023-04-16T00:21:27.648Z,99.90
2023-04-16T00:23:54.553Z,99.90
2023-04-16T00:26:21.374Z,99.90
2023-04-16T00:28:48.287Z,99.90
2023-04-16T00:31:15.449Z,99.90
2023-04-16T00:33:42.304Z,99.90
2023-04-16T00:36:09.785Z,99.90
2023-04-16T00:38:37.169Z,99.90
2023-04-16T00:41:04.055Z,99.90
2023-04-16T00:43:31.825Z,99.90
2023-04-16T00:45:58.750Z,99.90
2023-04-16T00:48:28.236Z,99.90
2023-04-16T00:50:55.679Z,99.90
2023-04-16T00:53:22.578Z,99.90
2023-04-16T00:55:49.413Z,99.90
2023-04-16T00:58:17.000Z,99.90
2023-04-16T01:00:43.880Z,99.90
2023-04-16T01:03:11.109Z,99.90
2023-04-16T01:05:38.088Z,99.90
2023-04-16T01:08:05.084Z,99.90
2023-04-16T01:10:31.992Z,99.90
2023-04-16T01:12:58.824Z,99.90
2023-04-16T01:15:25.677Z,99.90
2023-04-16T01:17:52.881Z,99.90
2023-04-16T01:20:19.748Z,99.90
2023-04-16T01:22:46.820Z,99.90
2023-04-16T01:25:16.735Z,99.90
2023-04-16T01:27:43.685Z,99.90
2023-04-16T01:30:10.847Z,99.90
2023-04-16T01:32:37.841Z,99.90
2023-04-16T01:35:04.990Z,99.90
2023-04-16T01:37:32.066Z,99.90
2023-04-16T01:39:58.882Z,99.90
2023-04-16T01:42:25.866Z,99.90
2023-04-16T01:44:52.760Z,99.90
2023-04-16T01:47:19.620Z,99.90
2023-04-16T01:49:48.362Z,99.90
2023-04-16T01:52:15.202Z,99.90
2023-04-16T01:54:42.203Z,99.90
2023-04-16T01:57:09.435Z,99.90
2023-04-16T01:59:36.274Z,99.90
2023-04-16T02:02:06.765Z,99.90
2023-04-16T02:04:33.670Z,99.90
2023-04-16T02:07:00.561Z,99.90
2023-04-16T02:09:27.378Z,99.90
2023-04-16T02:11:54.458Z,99.90
2023-04-16T02:14:22.854Z,99.90
2023-04-16T02:16:49.742Z,99.90
2023-04-16T02:19:16.807Z,99.90
2023-04-16T02:21:43.668Z,99.90
2023-04-16T02:24:10.501Z,99.90
2023-04-16T02:26:37.400Z,99.90
2023-04-16T02:29:04.273Z,99.90
2023-04-16T02:31:31.605Z,99.90
2023-04-16T02:33:58.476Z,99.90
2023-04-16T02:36:25.719Z,99.90
2023-04-16T02:38:52.567Z,99.90
2023-04-16T02:41:19.418Z,99.90
2023-04-16T02:43:46.360Z,99.90
2023-04-16T02:46:13.321Z,99.90
2023-04-16T02:48:40.433Z,99.90
2023-04-16T02:51:07.268Z,99.90
2023-04-16T02:53:34.358Z,99.90
2023-04-16T02:56:01.245Z,99.90
2023-04-16T02:58:28.099Z,99.90
2023-04-16T03:00:55.194Z,99.90
2023-04-16T03:03:22.200Z,99.90
2023-04-16T03:05:49.077Z,99.90
2023-04-16T03:08:15.916Z,99.90
2023-04-16T03:10:42.966Z,99.90
2023-04-16T03:13:09.833Z,99.90
2023-04-16T03:15:36.655Z,99.90
2023-04-16T03:18:03.724Z,99.90
2023-04-16T03:20:30.737Z,99.90
2023-04-16T03:22:57.551Z,99.90
2023-04-16T03:25:24.474Z,99.90
2023-04-16T03:27:51.294Z,99.90
2023-04-16T03:30:18.169Z,99.90
2023-04-16T03:32:45.052Z,99.90
2023-04-16T03:35:12.866Z,99.90
2023-04-16T03:37:39.709Z,99.90
2023-04-16T03:40:07.396Z,99.90
2023-04-16T03:42:34.224Z,99.90
2023-04-16T03:45:01.259Z,99.90
2023-04-16T03:47:28.186Z,99.90
2023-04-16T03:49:55.224Z,99.90
2023-04-16T03:52:21.966Z,99.90
2023-04-16T03:54:48.799Z,99.90
2023-04-16T03:57:15.931Z,99.90
2023-04-16T03:59:42.739Z,99.90
2023-04-16T04:02:09.689Z,99.90
2023-04-16T04:04:36.738Z,99.90
2023-04-16T04:07:03.680Z,99.90
2023-04-16T04:09:30.510Z,99.90
2023-04-16T04:11:57.396Z,99.90
2023-04-16T04:14:24.343Z,99.90
2023-04-16T04:16:51.163Z,99.90
2023-04-16T04:19:18.023Z,99.90
2023-04-16T04:21:44.848Z,99.90
2023-04-16T04:24:11.665Z,99.90
2023-04-16T04:26:38.531Z,99.90
2023-04-16T04:29:05.754Z,99.90
2023-04-16T04:31:32.633Z,99.90
2023-04-16T04:33:59.636Z,99.90
2023-04-16T04:36:27.474Z,99.90
2023-04-16T04:38:54.348Z,99.90
2023-04-16T04:41:21.886Z,99.90
2023-04-16T04:43:49.017Z,99.90
2023-04-16T04:46:15.934Z,99.90
2023-04-16T04:48:42.772Z,99.90
2023-04-16T04:51:09.603Z,99.90
2023-04-16T04:53:36.528Z,99.90
2023-04-16T04:56:12.169Z,99.90
2023-04-16T04:58:39.514Z,99.90
2023-04-16T05:01:12.055Z,99.90
2023-04-16T05:03:39.072Z,99.90
2023-04-16T05:06:07.073Z,99.90
2023-04-16T05:08:33.960Z,99.90
2023-04-16T05:11:00.985Z,99.90
2023-04-16T05:13:28.086Z,99.90
2023-04-16T05:15:55.279Z,99.90
2023-04-16T05:18:22.114Z,99.90
2023-04-16T05:20:48.948Z,99.90
2023-04-16T05:23:15.833Z,99.90
2023-04-16T05:25:42.997Z,99.90
2023-04-16T05:28:10.473Z,99.90
2023-04-16T05:30:37.438Z,99.90
2023-04-16T05:33:04.296Z,99.90
2023-04-16T05:35:31.134Z,99.90
2023-04-16T05:38:01.587Z,99.90
2023-04-16T05:40:28.471Z,99.90
2023-04-16T05:42:55.302Z,99.90
2023-04-16T05:45:22.217Z,99.90
2023-04-16T05:47:49.387Z,99.90
2023-04-16T05:50:16.293Z,99.90
2023-04-16T05:52:43.121Z,99.90
2023-04-16T05:55:13.252Z,99.90
2023-04-16T05:57:40.087Z,99.90
2023-04-16T06:00:07.968Z,99.90
2023-04-16T06:02:35.392Z,99.90
2023-04-16T06:05:02.469Z,99.90
2023-04-16T06:07:29.382Z,99.90
2023-04-16T06:09:58.599Z,99.90
2023-04-16T06:12:26.070Z,99.90
2023-04-16T06:14:52.927Z,99.90
2023-04-16T06:17:20.247Z,99.90
2023-04-16T06:19:47.138Z,99.90
2023-04-16T06:22:13.973Z,99.90
2023-04-16T06:24:41.900Z,99.90
2023-04-16T06:27:08.725Z,99.90
2023-04-16T06:29:41.252Z,99.90
2023-04-16T06:32:08.667Z,99.90
2023-04-16T06:34:38.041Z,99.90
2023-04-16T06:37:04.911Z,99.90
2023-04-16T06:39:34.207Z,99.90
2023-04-16T06:42:01.463Z,99.90
2023-04-16T06:44:28.363Z,99.90
2023-04-16T06:46:55.433Z,99.90
2023-04-16T06:49:39.954Z,99.90
2023-04-16T06:52:10.655Z,99.90
2023-04-16T06:54:37.730Z,99.90
2023-04-16T06:57:04.667Z,99.90
2023-04-16T06:59:31.906Z,99.90
2023-04-16T07:01:59.887Z,99.90
2023-04-16T07:04:33.661Z,99.90
2023-04-16T07:07:20.660Z,99.90
2023-04-16T07:09:47.592Z,99.90
2023-04-16T07:12:14.444Z,99.90
2023-04-16T07:14:41.619Z,99.90
2023-04-16T07:17:08.534Z,99.90
2023-04-16T07:19:36.021Z,99.90
2023-04-16T07:22:02.863Z,99.90
2023-04-16T07:24:29.856Z,99.90
2023-04-16T07:26:56.673Z,99.90
2023-04-16T07:29:23.617Z,99.90
2023-04-16T07:31:50.421Z,99.90
2023-04-16T07:34:17.327Z,99.90
2023-04-16T07:36:44.102Z,99.90
2023-04-16T07:39:11.711Z,99.90
2023-04-16T07:41:40.711Z,99.90
2023-04-16T07:44:08.114Z,99.90
2023-04-16T07:46:43.564Z,99.90
2023-04-16T07:49:13.483Z,99.90
2023-04-16T07:51:40.565Z,99.90
2023-04-16T07:54:07.524Z,99.90
2023-04-16T07:56:34.290Z,99.90
2023-04-16T07:59:14.817Z,99.90
2023-04-16T08:01:48.289Z,99.90
2023-04-16T08:04:17.451Z,99.90
2023-04-16T08:06:44.374Z,99.90
2023-04-16T08:09:11.539Z,99.90
2023-04-16T08:11:38.964Z,99.90
2023-04-16T08:14:10.490Z,99.90
2023-04-16T08:19:40.302Z,99.90
2023-04-16T08:22:18.834Z,99.90
2023-04-16T08:24:45.700Z,99.90
2023-04-16T08:27:19.261Z,99.90
2023-04-16T08:29:48.169Z,99.90
2023-04-16T08:32:15.150Z,99.90
2023-04-16T08:34:42.205Z,99.90
2023-04-16T08:37:09.416Z,99.90
2023-04-16T08:39:42.051Z,99.90
2023-04-16T08:42:14.597Z,99.90
2023-04-16T08:44:44.363Z,99.90
2023-04-16T08:47:11.175Z,99.90
2023-04-16T08:49:37.964Z,99.90
2023-04-16T08:52:05.980Z,99.90
2023-04-16T08:55:00.166Z,99.90
2023-04-16T08:57:29.837Z,99.90
2023-04-16T08:59:56.609Z,99.90
2023-04-16T09:02:23.632Z,99.90
2023-04-16T09:04:50.706Z,99.90
2023-04-16T09:07:17.491Z,99.90
2023-04-16T09:09:44.257Z,99.90
2023-04-16T09:12:11.078Z,99.90
2023-04-16T09:14:41.879Z,99.90
2023-04-16T09:17:09.125Z,99.90
2023-04-16T09:19:36.020Z,99.90
2023-04-16T09:22:02.930Z,99.90
2023-04-16T09:24:29.844Z,99.90
2023-04-16T09:26:56.674Z,99.90
2023-04-16T09:29:43.874Z,99.90
2023-04-16T09:32:11.706Z,99.90
2023-04-16T09:34:54.959Z,99.90
2023-04-16T09:37:21.858Z,99.90
2023-04-16T09:39:59.755Z,99.90
2023-04-16T09:42:28.295Z,99.90
2023-04-16T09:44:57.247Z,99.90
2023-04-16T09:47:46.046Z,99.90
2023-04-16T09:50:18.612Z,99.90
2023-04-16T09:52:48.457Z,99.90
2023-04-16T09:55:15.541Z,99.90
2023-04-16T09:57:42.497Z,99.90
2023-04-16T10:00:10.293Z,99.90
2023-04-16T10:02:41.758Z,99.90
2023-04-16T10:05:09.361Z,99.90
2023-04-16T10:07:36.935Z,99.90
2023-04-16T10:10:04.570Z,99.90
2023-04-16T10:12:32.911Z,99.90
2023-04-16T10:14:59.894Z,99.90
2023-04-16T10:17:29.931Z,99.90
2023-04-16T10:19:58.002Z,99.90
2023-04-16T10:22:24.877Z,99.90
2023-04-16T10:24:51.930Z,99.90
2023-04-16T10:27:18.926Z,99.90
2023-04-16T10:29:45.851Z,99.90
2023-04-16T10:32:12.710Z,99.90
2023-04-16T10:34:39.893Z,99.90
2023-04-16T10:37:06.776Z,99.90
2023-04-16T10:39:37.426Z,96.60
2023-04-16T10:42:12.190Z,95.90
2023-04-16T10:44:45.296Z,95.20
2023-04-16T10:47:13.439Z,93.50
2023-04-16T10:49:41.151Z,94.40
2023-04-16T10:52:17.207Z,95.90
2023-04-16T10:54:44.308Z,99.90
2023-04-16T10:57:17.965Z,99.90
2023-04-16T10:59:45.305Z,95.90
2023-04-16T11:02:18.693Z,95.30
2023-04-16T11:04:46.833Z,94.10
2023-04-16T11:07:16.810Z,91.40
2023-04-16T11:09:47.230Z,89.70
2023-04-16T11:12:29.521Z,84.50
2023-04-16T11:15:00.133Z,90.90
2023-04-16T11:17:36.584Z,93.00
2023-04-16T11:20:03.904Z,92.60
2023-04-16T11:22:46.248Z,90.50
2023-04-16T11:25:13.241Z,91.50
2023-04-16T11:27:40.986Z,88.80
2023-04-16T11:30:09.795Z,90.00
2023-04-16T11:32:37.877Z,93.20
2023-04-16T11:35:25.106Z,90.00
2023-04-16T11:37:56.376Z,88.10
2023-04-16T11:40:23.197Z,84.40
2023-04-16T11:42:50.038Z,87.90
2023-04-16T11:45:19.372Z,81.80
2023-04-16T11:47:52.262Z,82.50
2023-04-16T11:50:23.575Z,80.90
2023-04-16T11:52:51.647Z,90.00
2023-04-16T11:55:18.668Z,81.40
2023-04-16T11:57:46.168Z,79.40
2023-04-16T12:00:15.317Z,76.80
2023-04-16T12:02:43.916Z,74.30
2023-04-16T12:05:38.713Z,71.30
2023-04-16T12:08:06.924Z,66.90
2023-04-16T12:10:35.394Z,68.10
2023-04-16T12:13:12.774Z,66.50
2023-04-16T12:15:49.678Z,66.50
2023-04-16T12:18:17.237Z,65.70
2023-04-16T12:20:44.620Z,65.80
2023-04-16T12:23:22.449Z,67.30
2023-04-16T12:25:50.137Z,70.40
2023-04-16T12:28:33.436Z,71.10
2023-04-16T12:31:00.776Z,71.60
2023-04-16T12:33:27.850Z,65.10
2023-04-16T12:35:55.046Z,63.40
2023-04-16T12:38:24.238Z,63.50
2023-04-16T12:40:51.920Z,61.10
2023-04-16T12:43:19.885Z,60.00
2023-04-16T12:45:46.887Z,59.70
2023-04-16T12:48:13.730Z,59.60
2023-04-16T12:50:40.573Z,57.80
2023-04-16T12:53:07.418Z,57.60
2023-04-16T12:55:34.262Z,57.20
2023-04-16T12:58:01.177Z,57.70
2023-04-16T13:00:28.059Z,57.00
2023-04-16T13:02:55.157Z,56.80
2023-04-16T13:05:22.014Z,57.00
2023-04-16T13:07:48.834Z,58.50
2023-04-16T13:10:16.776Z,57.90
2023-04-16T13:12:43.753Z,58.50
2023-04-16T13:15:11.175Z,64.30
2023-04-16T13:17:38.374Z,68.40
2023-04-16T13:20:05.701Z,68.10
2023-04-16T13:22:32.559Z,70.60
2023-04-16T13:24:59.397Z,71.50
2023-04-16T13:27:26.365Z,76.00
2023-04-16T13:29:53.465Z,77.60
2023-04-16T13:32:20.482Z,79.60
2023-04-16T13:34:47.482Z,81.60
2023-04-16T13:37:14.266Z,82.80
2023-04-16T13:39:41.396Z,83.30
2023-04-16T13:42:08.694Z,81.80
2023-04-16T13:44:35.634Z,84.40
2023-04-16T13:47:02.444Z,83.10
2023-04-16T13:49:29.371Z,81.80
2023-04-16T13:51:56.207Z,77.00
2023-04-16T13:54:23.303Z,72.50
2023-04-16T13:56:50.939Z,72.10
2023-04-16T13:59:18.242Z,70.10
2023-04-16T14:01:45.013Z,70.70
2023-04-16T14:04:12.043Z,67.50
2023-04-16T14:06:38.858Z,69.90
2023-04-16T14:09:06.055Z,69.70
2023-04-16T14:11:32.991Z,70.70
2023-04-16T14:13:59.876Z,71.00
2023-04-16T14:16:27.499Z,73.90
2023-04-16T14:18:54.482Z,78.10
2023-04-16T14:21:21.313Z,77.20
2023-04-16T14:23:48.116Z,79.70
2023-04-16T14:26:14.951Z,83.80
2023-04-16T14:28:42.093Z,82.70
2023-04-16T14:31:08.990Z,84.60
2023-04-16T14:33:35.854Z,87.20
2023-04-16T14:36:03.456Z,89.70
2023-04-16T14:38:31.245Z,91.40
2023-04-16T14:40:58.133Z,93.70
2023-04-16T14:43:25.036Z,93.00
2023-04-16T14:45:52.829Z,96.40
2023-04-16T14:48:19.729Z,97.50
2023-04-16T14:50:46.508Z,99.90
2023-04-16T14:53:13.271Z,98.20
2023-04-16T14:55:40.137Z,97.00
2023-04-16T14:58:06.974Z,99.00
2023-04-16T15:00:35.584Z,99.90
2023-04-16T15:03:02.651Z,97.90
2023-04-16T15:05:30.441Z,98.60
2023-04-16T15:07:57.472Z,98.50
2023-04-16T15:10:24.571Z,98.40
2023-04-16T15:12:51.356Z,99.60
2023-04-16T15:15:18.225Z,95.50
2023-04-16T15:17:45.234Z,93.20
2023-04-16T15:20:12.878Z,94.20
2023-04-16T15:22:40.181Z,94.20
2023-04-16T15:25:07.521Z,93.00
2023-04-16T15:27:34.371Z,93.10
2023-04-16T15:30:01.237Z,92.20
2023-04-16T15:32:28.104Z,90.30
2023-04-16T15:34:54.936Z,86.10
2023-04-16T15:37:21.796Z,82.60
2023-04-16T15:39:48.622Z,82.80
2023-04-16T15:42:15.782Z,85.80
2023-04-16T15:44:42.658Z,84.40
2023-04-16T15:47:09.549Z,87.50
2023-04-16T15:49:36.509Z,86.50
2023-04-16T15:52:03.586Z,91.00
2023-04-16T15:54:31.955Z,94.80
2023-04-16T15:56:59.109Z,96.20
2023-04-16T15:59:26.780Z,99.20
2023-04-16T16:01:53.919Z,99.90
2023-04-16T16:04:23.183Z,95.30
2023-04-16T16:06:50.475Z,96.70
2023-04-16T16:09:17.772Z,97.70
2023-04-16T16:11:45.073Z,99.30
2023-04-16T16:14:12.003Z,99.90
2023-04-16T16:16:39.817Z,99.90
2023-04-16T16:19:07.002Z,99.90
2023-04-16T16:21:34.244Z,99.90
2023-04-16T16:24:01.215Z,99.90
2023-04-16T16:26:28.278Z,99.90
2023-04-16T16:28:55.150Z,99.90
2023-04-16T16:31:22.256Z,99.90
2023-04-16T16:33:49.266Z,99.90
2023-04-16T16:36:16.481Z,99.90
2023-04-16T16:38:43.533Z,99.90
2023-04-16T16:41:10.397Z,99.90
2023-04-16T16:43:37.333Z,99.90
2023-04-16T16:46:05.056Z,99.90
2023-04-16T16:48:32.152Z,99.90
2023-04-16T16:50:59.198Z,99.90
2023-04-16T16:53:26.215Z,99.90
2023-04-16T16:55:53.166Z,99.90
2023-04-16T16:58:20.026Z,99.90
2023-04-16T17:00:46.855Z,99.90
2023-04-16T17:03:13.984Z,99.90
2023-04-16T17:05:41.002Z,99.90
2023-04-16T17:08:07.788Z,99.90
2023-04-16T17:10:35.633Z,99.90
2023-04-16T17:13:02.476Z,99.90
2023-04-16T17:15:29.299Z,99.90
2023-04-16T17:17:57.190Z,99.90
2023-04-16T17:20:24.116Z,99.90
2023-04-16T17:22:51.264Z,99.90
2023-04-16T17:25:18.141Z,99.90
2023-04-16T17:27:44.997Z,99.90
2023-04-16T17:30:12.055Z,99.90
2023-04-16T17:32:44.021Z,99.90
2023-04-16T17:35:11.278Z,99.90
2023-04-16T17:37:38.127Z,99.90
2023-04-16T17:40:07.595Z,99.90
2023-04-16T17:42:35.470Z,99.90
2023-04-16T17:45:02.877Z,99.90
2023-04-16T17:47:29.767Z,99.90
2023-04-16T17:49:56.700Z,99.90
2023-04-16T17:52:23.747Z,99.90
2023-04-16T17:54:50.994Z,99.90
2023-04-16T17:57:18.389Z,99.90
2023-04-16T17:59:45.408Z,99.90
2023-04-16T18:02:12.286Z,99.90
2023-04-16T18:04:39.210Z,99.90
2023-04-16T18:07:06.505Z,99.90
2023-04-16T18:09:33.353Z,99.90
2023-04-16T18:12:01.308Z,99.90
2023-04-16T18:14:28.283Z,99.90
2023-04-16T18:16:57.311Z,99.90
2023-04-16T18:19:24.103Z,99.90
2023-04-16T18:21:55.065Z,99.90
2023-04-16T18:24:22.162Z,99.90
2023-04-16T18:26:49.018Z,99.90
2023-04-16T18:29:17.715Z,99.90
2023-04-16T18:31:45.169Z,99.90
2023-04-16T18:34:12.542Z,99.90
2023-04-16T18:36:39.566Z,99.90
2023-04-16T18:39:07.517Z,99.90
2023-04-16T18:41:34.445Z,99.90
2023-04-16T18:44:01.267Z,99.90
2023-04-16T18:46:30.148Z,99.90
2023-04-16T18:48:59.057Z,99.90
2023-04-16T18:51:27.363Z,99.90
2023-04-16T18:53:54.312Z,99.90
2023-04-16T18:56:21.748Z,99.90
2023-04-16T18:58:48.890Z,99.90
2023-04-16T19:01:16.761Z,99.90
2023-04-16T19:03:43.764Z,99.90
2023-04-16T19:06:10.623Z,99.90
2023-04-16T19:08:37.531Z,99.90
2023-04-16T19:11:04.374Z,99.90
2023-04-16T19:13:32.403Z,99.90
2023-04-16T19:16:00.093Z,99.90
2023-04-16T19:18:27.191Z,99.90
2023-04-16T19:21:03.200Z,99.90
2023-04-16T19:23:30.059Z,99.90
2023-04-16T19:25:57.086Z,99.90
2023-04-16T19:28:24.601Z,99.90
2023-04-16T19:30:52.075Z,99.90
2023-04-16T19:33:22.042Z,99.90
2023-04-16T19:35:49.032Z,99.90
2023-04-16T19:38:15.875Z,99.90
2023-04-16T19:40:46.836Z,99.90
2023-04-16T19:43:13.821Z,99.90
2023-04-16T19:45:44.677Z,99.90
2023-04-16T19:48:11.603Z,99.90
2023-04-16T19:50:42.136Z,99.90
2023-04-16T19:53:11.114Z,99.90
2023-04-16T19:55:41.357Z,99.90
2023-04-16T19:58:08.938Z,99.90
2023-04-16T20:00:40.870Z,99.90
2023-04-16T20:03:07.908Z,99.90
2023-04-16T20:05:34.832Z,99.90
2023-04-16T20:08:01.661Z,99.90
2023-04-16T20:10:29.374Z,99.90
2023-04-16T20:12:56.440Z,99.90
2023-04-16T20:15:23.283Z,99.90
2023-04-16T20:17:50.194Z,99.90
2023-04-16T20:20:17.161Z,99.90
2023-04-16T20:22:44.045Z,99.90
2023-04-16T20:25:11.602Z,99.90
2023-04-16T20:27:38.607Z,99.90
2023-04-16T20:30:06.318Z,99.90
2023-04-16T20:32:33.429Z,99.90
2023-04-16T20:35:00.299Z,99.90
2023-04-16T20:37:29.077Z,99.90
2023-04-16T20:39:56.371Z,99.90
2023-04-16T20:42:23.565Z,99.90
2023-04-16T20:44:50.641Z,99.90
2023-04-16T20:47:17.575Z,99.90
2023-04-16T20:49:46.448Z,99.90
2023-04-16T20:54:41.758Z,99.90
2023-04-16T20:57:08.603Z,99.90
2023-04-16T20:59:37.008Z,99.90
2023-04-16T21:02:04.020Z,99.90
2023-04-16T21:04:31.135Z,99.90
2023-04-16T21:06:58.111Z,99.90
2023-04-16T21:09:24.969Z,99.90
2023-04-16T21:11:51.780Z,99.90
2023-04-16T21:14:18.895Z,99.90
2023-04-16T21:16:46.244Z,99.90
2023-04-16T21:19:13.248Z,99.90
2023-04-16T21:21:40.211Z,99.90
2023-04-16T21:24:07.379Z,99.90
2023-04-16T21:26:34.191Z,99.90
2023-04-16T21:29:01.045Z,99.90
2023-04-16T21:31:28.177Z,99.90
2023-04-16T21:33:55.052Z,99.90
2023-04-16T21:36:21.887Z,99.90
2023-04-16T21:38:48.673Z,99.90
2023-04-16T21:41:16.621Z,99.90
2023-04-16T21:43:43.495Z,99.90
2023-04-16T21:46:10.522Z,99.90
2023-04-16T21:48:37.508Z,99.90
2023-04-16T21:51:08.218Z,99.90
2023-04-16T21:53:35.412Z,99.90
2023-04-16T21:56:02.450Z,99.90
2023-04-16T21:58:29.236Z,99.90
2023-04-16T22:00:56.134Z,99.90
2023-04-16T22:03:27.588Z,99.90
2023-04-16T22:06:01.020Z,99.90
2023-04-16T22:08:28.857Z,99.90
2023-04-16T22:10:59.611Z,99.90
2023-04-16T22:13:26.635Z,99.90
2023-04-16T22:15:54.423Z,99.90
2023-04-16T22:18:21.306Z,99.90
2023-04-16T22:20:50.986Z,99.90
2023-04-16T22:23:17.908Z,99.90
2023-04-16T22:25:44.771Z,99.90
2023-04-16T22:28:11.622Z,99.90
2023-04-16T22:30:38.817Z,99.90
2023-04-16T22:33:05.727Z,99.90
2023-04-16T22:35:33.254Z,99.90
2023-04-16T22:38:00.079Z,99.90
2023-04-16T22:40:27.046Z,99.90
2023-04-16T22:43:43.772Z,99.90
2023-04-16T22:46:10.646Z,99.90
2023-04-16T22:48:38.633Z,99.90
2023-04-16T22:51:05.818Z,99.90
2023-04-16T22:53:32.754Z,99.90
2023-04-16T22:55:59.755Z,99.90
2023-04-16T22:58:26.481Z,99.90
2023-04-16T23:00:53.837Z,99.90
2023-04-16T23:03:20.886Z,99.90
2023-04-16T23:05:48.732Z,99.90
2023-04-16T23:08:15.664Z,99.90
2023-04-16T23:10:42.451Z,99.90
2023-04-16T23:13:09.240Z,99.90
2023-04-16T23:15:36.461Z,99.90
2023-04-16T23:18:03.492Z,99.90
2023-04-16T23:20:30.540Z,99.90
2023-04-16T23:22:57.330Z,99.90
2023-04-16T23:25:25.488Z,99.90
2023-04-16T23:27:52.235Z,99.90
2023-04-16T23:30:19.116Z,99.90
2023-04-16T23:32:45.982Z,99.90
2023-04-16T23:35:12.864Z,99.90
2023-04-16T23:37:39.865Z,99.90
2023-04-16T23:40:08.183Z,99.90
2023-04-16T23:42:34.978Z,99.90
2023-04-16T23:45:01.802Z,99.90
2023-04-16T23:47:28.551Z,99.90
2023-04-16T23:49:55.732Z,99.90
2023-04-16T23:52:22.500Z,99.90
2023-04-16T23:54:50.677Z,99.90
2023-04-16T23:57:17.435Z,99.90
2023-04-16T23:59:44.360Z,99.90
